sensor_id;sensor_type;location;lat;lon;timestamp;P1;durP1;ratioP1;P2;durP2;ratioP2
9459;SDS011;4768;42.664;23.240;2023-03-24T00:02:10;22.50;;;17.10;;
9459;SDS011;4768;42.664;23.240;2023-03-24T00:04:38;28.17;;;17.33;;
9459;SDS011;4768;42.664;23.240;2023-03-24T00:07:06;25.53;;;17.03;;
9459;SDS011;4768;42.664;23.240;2023-03-24T00:09:33;23.03;;;17.13;;
9459;SDS011;4768;42.664;23.240;2023-03-24T00:12:02;24.87;;;16.93;;
9459;SDS011;4768;42.664;23.240;2023-03-24T00:14:29;25.37;;;16.30;;
9459;SDS011;4768;42.664;23.240;2023-03-24T00:16:55;20.70;;;15.83;;
9459;SDS011;4768;42.664;23.240;2023-03-24T00:19:23;22.43;;;14.93;;
9459;SDS011;4768;42.664;23.240;2023-03-24T00:21:50;22.23;;;15.60;;
9459;SDS011;4768;42.664;23.240;2023-03-24T00:24:20;23.80;;;15.07;;
9459;SDS011;4768;42.664;23.240;2023-03-24T00:26:47;20.37;;;14.07;;
9459;SDS011;4768;42.664;23.240;2023-03-24T00:29:17;19.43;;;14.47;;
9459;SDS011;4768;42.664;23.240;2023-03-24T00:31:44;23.70;;;16.60;;
9459;SDS011;4768;42.664;23.240;2023-03-24T00:34:11;24.63;;;15.60;;
9459;SDS011;4768;42.664;23.240;2023-03-24T00:36:38;21.13;;;14.93;;
9459;SDS011;4768;42.664;23.240;2023-03-24T00:39:04;23.07;;;15.03;;
9459;SDS011;4768;42.664;23.240;2023-03-24T00:41:31;22.23;;;14.90;;
9459;SDS011;4768;42.664;23.240;2023-03-24T00:43:59;20.47;;;14.03;;
9459;SDS011;4768;42.664;23.240;2023-03-24T00:46:31;19.27;;;13.37;;
9459;SDS011;4768;42.664;23.240;2023-03-24T00:49:00;25.80;;;15.80;;
9459;SDS011;4768;42.664;23.240;2023-03-24T00:51:29;22.70;;;15.23;;
9459;SDS011;4768;42.664;23.240;2023-03-24T00:53:57;21.70;;;15.20;;
9459;SDS011;4768;42.664;23.240;2023-03-24T00:56:24;23.67;;;16.40;;
9459;SDS011;4768;42.664;23.240;2023-03-24T00:58:52;21.27;;;13.00;;
9459;SDS011;4768;42.664;23.240;2023-03-24T01:01:22;15.20;;;10.90;;
9459;SDS011;4768;42.664;23.240;2023-03-24T01:03:52;14.47;;;11.33;;
9459;SDS011;4768;42.664;23.240;2023-03-24T01:06:21;18.13;;;10.53;;
9459;SDS011;4768;42.664;23.240;2023-03-24T01:08:49;17.20;;;12.23;;
9459;SDS011;4768;42.664;23.240;2023-03-24T01:11:18;19.17;;;13.57;;
9459;SDS011;4768;42.664;23.240;2023-03-24T01:13:46;20.40;;;14.10;;
9459;SDS011;4768;42.664;23.240;2023-03-24T01:16:14;17.20;;;13.30;;
9459;SDS011;4768;42.664;23.240;2023-03-24T01:18:41;21.37;;;14.57;;
9459;SDS011;4768;42.664;23.240;2023-03-24T01:21:09;17.43;;;13.20;;
9459;SDS011;4768;42.664;23.240;2023-03-24T01:23:37;20.57;;;14.23;;
9459;SDS011;4768;42.664;23.240;2023-03-24T01:26:06;18.43;;;13.43;;
9459;SDS011;4768;42.664;23.240;2023-03-24T01:28:35;17.63;;;12.97;;
9459;SDS011;4768;42.664;23.240;2023-03-24T01:31:05;19.43;;;12.77;;
9459;SDS011;4768;42.664;23.240;2023-03-24T01:33:34;18.43;;;12.67;;
9459;SDS011;4768;42.664;23.240;2023-03-24T01:36:01;22.10;;;14.80;;
9459;SDS011;4768;42.664;23.240;2023-03-24T01:38:30;21.07;;;15.77;;
9459;SDS011;4768;42.664;23.240;2023-03-24T01:40:57;21.67;;;16.03;;
9459;SDS011;4768;42.664;23.240;2023-03-24T01:43:25;22.13;;;15.47;;
9459;SDS011;4768;42.664;23.240;2023-03-24T01:46:06;21.60;;;15.20;;
9459;SDS011;4768;42.664;23.240;2023-03-24T01:48:40;22.27;;;14.97;;
9459;SDS011;4768;42.664;23.240;2023-03-24T01:51:10;22.73;;;13.80;;
9459;SDS011;4768;42.664;23.240;2023-03-24T01:53:41;13.33;;;10.17;;
9459;SDS011;4768;42.664;23.240;2023-03-24T01:56:11;18.37;;;13.33;;
9459;SDS011;4768;42.664;23.240;2023-03-24T01:58:39;20.53;;;14.07;;
9459;SDS011;4768;42.664;23.240;2023-03-24T02:01:11;21.67;;;14.27;;
9459;SDS011;4768;42.664;23.240;2023-03-24T02:03:37;15.60;;;11.23;;
9459;SDS011;4768;42.664;23.240;2023-03-24T02:06:06;14.83;;;10.00;;
9459;SDS011;4768;42.664;23.240;2023-03-24T02:08:35;11.97;;;9.37;;
9459;SDS011;4768;42.664;23.240;2023-03-24T02:11:07;13.73;;;9.33;;
9459;SDS011;4768;42.664;23.240;2023-03-24T02:13:35;15.63;;;10.93;;
9459;SDS011;4768;42.664;23.240;2023-03-24T02:16:12;16.33;;;11.33;;
9459;SDS011;4768;42.664;23.240;2023-03-24T02:18:47;18.50;;;13.00;;
9459;SDS011;4768;42.664;23.240;2023-03-24T02:24:57;15.37;;;11.50;;
9459;SDS011;4768;42.664;23.240;2023-03-24T02:27:47;17.43;;;11.20;;
9459;SDS011;4768;42.664;23.240;2023-03-24T02:30:25;17.30;;;11.23;;
9459;SDS011;4768;42.664;23.240;2023-03-24T02:33:28;16.17;;;10.97;;
9459;SDS011;4768;42.664;23.240;2023-03-24T02:39:32;13.13;;;9.33;;
9459;SDS011;4768;42.664;23.240;2023-03-24T02:42:05;10.67;;;7.77;;
9459;SDS011;4768;42.664;23.240;2023-03-24T02:44:40;11.23;;;8.10;;
9459;SDS011;4768;42.664;23.240;2023-03-24T02:47:19;14.30;;;7.30;;
9459;SDS011;4768;42.664;23.240;2023-03-24T02:49:53;7.10;;;5.87;;
9459;SDS011;4768;42.664;23.240;2023-03-24T02:52:28;8.77;;;6.70;;
9459;SDS011;4768;42.664;23.240;2023-03-24T02:55:05;9.73;;;7.27;;
9459;SDS011;4768;42.664;23.240;2023-03-24T02:57:38;11.47;;;8.50;;
9459;SDS011;4768;42.664;23.240;2023-03-24T03:00:09;10.13;;;8.23;;
9459;SDS011;4768;42.664;23.240;2023-03-24T03:02:44;11.33;;;8.70;;
9459;SDS011;4768;42.664;23.240;2023-03-24T03:05:14;11.93;;;9.10;;
9459;SDS011;4768;42.664;23.240;2023-03-24T03:07:46;10.77;;;8.00;;
9459;SDS011;4768;42.664;23.240;2023-03-24T03:10:19;10.83;;;7.83;;
9459;SDS011;4768;42.664;23.240;2023-03-24T03:12:50;10.63;;;7.67;;
9459;SDS011;4768;42.664;23.240;2023-03-24T03:15:20;9.77;;;6.67;;
9459;SDS011;4768;42.664;23.240;2023-03-24T03:17:52;10.70;;;7.40;;
9459;SDS011;4768;42.664;23.240;2023-03-24T03:20:23;12.17;;;8.20;;
9459;SDS011;4768;42.664;23.240;2023-03-24T03:22:55;12.07;;;9.53;;
9459;SDS011;4768;42.664;23.240;2023-03-24T03:25:29;13.83;;;9.47;;
9459;SDS011;4768;42.664;23.240;2023-03-24T03:28:03;15.70;;;11.07;;
9459;SDS011;4768;42.664;23.240;2023-03-24T03:30:33;16.67;;;12.80;;
9459;SDS011;4768;42.664;23.240;2023-03-24T03:33:04;12.00;;;9.47;;
9459;SDS011;4768;42.664;23.240;2023-03-24T03:35:36;12.37;;;9.67;;
9459;SDS011;4768;42.664;23.240;2023-03-24T03:38:09;15.50;;;10.27;;
9459;SDS011;4768;42.664;23.240;2023-03-24T03:40:42;14.50;;;10.27;;
9459;SDS011;4768;42.664;23.240;2023-03-24T03:43:16;16.90;;;10.67;;
9459;SDS011;4768;42.664;23.240;2023-03-24T03:45:43;17.23;;;11.33;;
9459;SDS011;4768;42.664;23.240;2023-03-24T03:48:10;15.93;;;11.20;;
9459;SDS011;4768;42.664;23.240;2023-03-24T03:50:37;16.50;;;12.43;;
9459;SDS011;4768;42.664;23.240;2023-03-24T03:53:04;16.80;;;11.50;;
9459;SDS011;4768;42.664;23.240;2023-03-24T03:55:32;18.73;;;12.27;;
9459;SDS011;4768;42.664;23.240;2023-03-24T03:58:00;17.93;;;13.77;;
9459;SDS011;4768;42.664;23.240;2023-03-24T04:00:28;19.73;;;12.60;;
9459;SDS011;4768;42.664;23.240;2023-03-24T04:03:16;19.40;;;13.97;;
9459;SDS011;4768;42.664;23.240;2023-03-24T04:05:57;21.00;;;14.90;;
9459;SDS011;4768;42.664;23.240;2023-03-24T04:08:32;19.97;;;13.73;;
9459;SDS011;4768;42.664;23.240;2023-03-24T04:11:23;17.43;;;13.47;;
9459;SDS011;4768;42.664;23.240;2023-03-24T04:14:06;21.57;;;16.73;;
9459;SDS011;4768;42.664;23.240;2023-03-24T04:16:52;18.60;;;14.20;;
9459;SDS011;4768;42.664;23.240;2023-03-24T04:19:34;23.73;;;19.43;;
9459;SDS011;4768;42.664;23.240;2023-03-24T04:22:12;20.83;;;13.97;;
9459;SDS011;4768;42.664;23.240;2023-03-24T04:24:50;20.73;;;14.83;;
9459;SDS011;4768;42.664;23.240;2023-03-24T04:27:21;24.47;;;16.97;;
9459;SDS011;4768;42.664;23.240;2023-03-24T04:29:58;24.43;;;16.27;;
9459;SDS011;4768;42.664;23.240;2023-03-24T04:32:34;24.83;;;17.57;;
9459;SDS011;4768;42.664;23.240;2023-03-24T04:35:08;26.60;;;18.93;;
9459;SDS011;4768;42.664;23.240;2023-03-24T04:37:44;27.23;;;19.30;;
9459;SDS011;4768;42.664;23.240;2023-03-24T04:40:13;22.43;;;15.47;;
9459;SDS011;4768;42.664;23.240;2023-03-24T04:42:44;22.37;;;15.63;;
9459;SDS011;4768;42.664;23.240;2023-03-24T04:45:18;22.37;;;15.60;;
9459;SDS011;4768;42.664;23.240;2023-03-24T04:47:50;19.77;;;14.70;;
9459;SDS011;4768;42.664;23.240;2023-03-24T04:50:30;20.17;;;14.80;;
9459;SDS011;4768;42.664;23.240;2023-03-24T04:53:00;17.63;;;13.20;;
9459;SDS011;4768;42.664;23.240;2023-03-24T04:55:31;19.10;;;14.00;;
9459;SDS011;4768;42.664;23.240;2023-03-24T04:58:14;21.87;;;16.00;;
9459;SDS011;4768;42.664;23.240;2023-03-24T05:00:42;20.43;;;14.83;;
9459;SDS011;4768;42.664;23.240;2023-03-24T05:03:09;17.17;;;13.67;;
9459;SDS011;4768;42.664;23.240;2023-03-24T05:05:38;19.30;;;14.70;;
9459;SDS011;4768;42.664;23.240;2023-03-24T05:08:05;21.47;;;15.43;;
9459;SDS011;4768;42.664;23.240;2023-03-24T05:10:32;22.13;;;15.83;;
9459;SDS011;4768;42.664;23.240;2023-03-24T05:12:59;28.17;;;16.93;;
9459;SDS011;4768;42.664;23.240;2023-03-24T05:15:26;27.10;;;18.13;;
9459;SDS011;4768;42.664;23.240;2023-03-24T05:17:55;27.33;;;18.47;;
9459;SDS011;4768;42.664;23.240;2023-03-24T05:20:22;25.43;;;18.33;;
9459;SDS011;4768;42.664;23.240;2023-03-24T05:22:49;30.83;;;19.53;;
9459;SDS011;4768;42.664;23.240;2023-03-24T05:25:17;25.33;;;18.80;;
9459;SDS011;4768;42.664;23.240;2023-03-24T05:27:44;31.57;;;19.83;;
9459;SDS011;4768;42.664;23.240;2023-03-24T05:30:12;27.43;;;19.60;;
9459;SDS011;4768;42.664;23.240;2023-03-24T05:32:39;23.90;;;18.70;;
9459;SDS011;4768;42.664;23.240;2023-03-24T05:35:08;24.00;;;18.43;;
9459;SDS011;4768;42.664;23.240;2023-03-24T05:37:35;24.30;;;17.70;;
9459;SDS011;4768;42.664;23.240;2023-03-24T05:40:01;23.20;;;17.67;;
9459;SDS011;4768;42.664;23.240;2023-03-24T05:42:28;26.17;;;16.33;;
9459;SDS011;4768;42.664;23.240;2023-03-24T05:44:55;23.70;;;16.87;;
9459;SDS011;4768;42.664;23.240;2023-03-24T05:47:22;21.47;;;16.60;;
9459;SDS011;4768;42.664;23.240;2023-03-24T05:49:49;19.23;;;15.47;;
9459;SDS011;4768;42.664;23.240;2023-03-24T05:52:17;26.77;;;16.70;;
9459;SDS011;4768;42.664;23.240;2023-03-24T05:54:44;24.47;;;17.60;;
9459;SDS011;4768;42.664;23.240;2023-03-24T05:57:16;27.10;;;18.10;;
9459;SDS011;4768;42.664;23.240;2023-03-24T05:59:44;29.30;;;20.13;;
9459;SDS011;4768;42.664;23.240;2023-03-24T06:02:11;26.67;;;20.13;;
9459;SDS011;4768;42.664;23.240;2023-03-24T06:04:38;27.43;;;20.57;;
9459;SDS011;4768;42.664;23.240;2023-03-24T06:07:10;29.20;;;20.77;;
9459;SDS011;4768;42.664;23.240;2023-03-24T06:09:38;29.27;;;19.67;;
9459;SDS011;4768;42.664;23.240;2023-03-24T06:12:07;27.90;;;18.93;;
9459;SDS011;4768;42.664;23.240;2023-03-24T06:14:34;25.30;;;19.40;;
9459;SDS011;4768;42.664;23.240;2023-03-24T06:17:02;24.10;;;18.60;;
9459;SDS011;4768;42.664;23.240;2023-03-24T06:19:29;30.63;;;20.03;;
9459;SDS011;4768;42.664;23.240;2023-03-24T06:21:57;29.63;;;20.30;;
9459;SDS011;4768;42.664;23.240;2023-03-24T06:24:24;25.50;;;20.10;;
9459;SDS011;4768;42.664;23.240;2023-03-24T06:26:52;26.43;;;19.00;;
9459;SDS011;4768;42.664;23.240;2023-03-24T06:29:26;25.67;;;18.40;;
9459;SDS011;4768;42.664;23.240;2023-03-24T06:31:53;28.63;;;18.20;;
9459;SDS011;4768;42.664;23.240;2023-03-24T06:34:20;24.97;;;17.87;;
9459;SDS011;4768;42.664;23.240;2023-03-24T06:36:49;27.20;;;18.93;;
9459;SDS011;4768;42.664;23.240;2023-03-24T06:39:15;25.73;;;19.00;;
9459;SDS011;4768;42.664;23.240;2023-03-24T06:41:42;27.00;;;18.53;;
9459;SDS011;4768;42.664;23.240;2023-03-24T06:44:10;24.40;;;19.67;;
9459;SDS011;4768;42.664;23.240;2023-03-24T06:46:37;29.73;;;21.10;;
9459;SDS011;4768;42.664;23.240;2023-03-24T06:49:04;33.77;;;21.63;;
9459;SDS011;4768;42.664;23.240;2023-03-24T06:51:31;25.60;;;20.50;;
9459;SDS011;4768;42.664;23.240;2023-03-24T06:53:58;30.90;;;20.87;;
9459;SDS011;4768;42.664;23.240;2023-03-24T06:56:25;29.27;;;21.27;;
9459;SDS011;4768;42.664;23.240;2023-03-24T06:58:51;28.73;;;21.37;;
9459;SDS011;4768;42.664;23.240;2023-03-24T07:01:20;29.30;;;21.90;;
9459;SDS011;4768;42.664;23.240;2023-03-24T07:03:47;32.77;;;22.57;;
9459;SDS011;4768;42.664;23.240;2023-03-24T07:06:14;29.80;;;21.53;;
9459;SDS011;4768;42.664;23.240;2023-03-24T07:08:42;30.43;;;22.13;;
9459;SDS011;4768;42.664;23.240;2023-03-24T07:11:10;29.13;;;21.00;;
9459;SDS011;4768;42.664;23.240;2023-03-24T07:13:37;33.87;;;22.83;;
9459;SDS011;4768;42.664;23.240;2023-03-24T07:16:04;29.30;;;21.97;;
9459;SDS011;4768;42.664;23.240;2023-03-24T07:18:32;32.47;;;22.13;;
9459;SDS011;4768;42.664;23.240;2023-03-24T07:20:59;31.60;;;21.30;;
9459;SDS011;4768;42.664;23.240;2023-03-24T07:23:27;26.03;;;19.93;;
9459;SDS011;4768;42.664;23.240;2023-03-24T07:25:55;26.83;;;20.83;;
9459;SDS011;4768;42.664;23.240;2023-03-24T07:28:21;28.33;;;19.90;;
9459;SDS011;4768;42.664;23.240;2023-03-24T07:30:48;31.50;;;20.97;;
9459;SDS011;4768;42.664;23.240;2023-03-24T07:33:15;25.13;;;19.47;;
9459;SDS011;4768;42.664;23.240;2023-03-24T07:35:43;25.37;;;19.27;;
9459;SDS011;4768;42.664;23.240;2023-03-24T07:38:10;25.57;;;19.33;;
9459;SDS011;4768;42.664;23.240;2023-03-24T07:40:37;27.10;;;19.37;;
9459;SDS011;4768;42.664;23.240;2023-03-24T07:43:04;25.83;;;19.03;;
9459;SDS011;4768;42.664;23.240;2023-03-24T07:45:31;25.40;;;19.60;;
9459;SDS011;4768;42.664;23.240;2023-03-24T07:47:58;26.37;;;18.60;;
9459;SDS011;4768;42.664;23.240;2023-03-24T07:50:27;25.30;;;18.57;;
9459;SDS011;4768;42.664;23.240;2023-03-24T07:52:58;27.13;;;20.00;;
9459;SDS011;4768;42.664;23.240;2023-03-24T07:55:26;29.37;;;21.00;;
9459;SDS011;4768;42.664;23.240;2023-03-24T07:57:53;26.23;;;19.60;;
9459;SDS011;4768;42.664;23.240;2023-03-24T08:00:20;25.13;;;19.57;;
9459;SDS011;4768;42.664;23.240;2023-03-24T08:02:49;32.10;;;19.43;;
9459;SDS011;4768;42.664;23.240;2023-03-24T08:05:17;27.50;;;18.20;;
9459;SDS011;4768;42.664;23.240;2023-03-24T08:07:46;24.97;;;19.00;;
9459;SDS011;4768;42.664;23.240;2023-03-24T08:10:19;28.33;;;18.60;;
9459;SDS011;4768;42.664;23.240;2023-03-24T08:12:47;25.87;;;19.87;;
9459;SDS011;4768;42.664;23.240;2023-03-24T08:15:14;27.63;;;19.50;;
9459;SDS011;4768;42.664;23.240;2023-03-24T08:17:41;24.03;;;19.23;;
9459;SDS011;4768;42.664;23.240;2023-03-24T08:20:09;27.20;;;19.53;;
9459;SDS011;4768;42.664;23.240;2023-03-24T08:22:39;28.97;;;19.30;;
9459;SDS011;4768;42.664;23.240;2023-03-24T08:25:06;26.47;;;19.67;;
9459;SDS011;4768;42.664;23.240;2023-03-24T08:27:36;30.07;;;20.33;;
9459;SDS011;4768;42.664;23.240;2023-03-24T08:30:03;24.27;;;19.50;;
9459;SDS011;4768;42.664;23.240;2023-03-24T08:32:31;28.87;;;19.73;;
9459;SDS011;4768;42.664;23.240;2023-03-24T08:34:58;27.27;;;20.30;;
9459;SDS011;4768;42.664;23.240;2023-03-24T08:37:25;26.93;;;21.10;;
9459;SDS011;4768;42.664;23.240;2023-03-24T08:39:51;28.57;;;21.10;;
9459;SDS011;4768;42.664;23.240;2023-03-24T08:42:22;28.30;;;21.80;;
9459;SDS011;4768;42.664;23.240;2023-03-24T08:44:51;32.20;;;20.60;;
9459;SDS011;4768;42.664;23.240;2023-03-24T08:47:18;32.60;;;20.80;;
9459;SDS011;4768;42.664;23.240;2023-03-24T08:49:45;31.83;;;21.23;;
9459;SDS011;4768;42.664;23.240;2023-03-24T08:52:11;30.93;;;20.83;;
9459;SDS011;4768;42.664;23.240;2023-03-24T08:54:38;29.37;;;20.90;;
9459;SDS011;4768;42.664;23.240;2023-03-24T08:57:05;32.03;;;21.03;;
9459;SDS011;4768;42.664;23.240;2023-03-24T08:59:32;26.57;;;20.40;;
9459;SDS011;4768;42.664;23.240;2023-03-24T09:02:00;28.80;;;20.50;;
9459;SDS011;4768;42.664;23.240;2023-03-24T09:04:27;28.60;;;19.83;;
9459;SDS011;4768;42.664;23.240;2023-03-24T09:06:54;27.70;;;20.53;;
9459;SDS011;4768;42.664;23.240;2023-03-24T09:09:24;24.30;;;18.50;;
9459;SDS011;4768;42.664;23.240;2023-03-24T09:11:51;24.30;;;18.70;;
9459;SDS011;4768;42.664;23.240;2023-03-24T09:14:17;24.47;;;18.97;;
9459;SDS011;4768;42.664;23.240;2023-03-24T09:16:46;32.33;;;19.73;;
9459;SDS011;4768;42.664;23.240;2023-03-24T09:19:15;26.53;;;18.37;;
9459;SDS011;4768;42.664;23.240;2023-03-24T09:21:42;25.50;;;19.53;;
9459;SDS011;4768;42.664;23.240;2023-03-24T09:24:10;24.73;;;18.60;;
9459;SDS011;4768;42.664;23.240;2023-03-24T09:26:36;25.53;;;18.13;;
9459;SDS011;4768;42.664;23.240;2023-03-24T09:29:03;25.87;;;17.83;;
9459;SDS011;4768;42.664;23.240;2023-03-24T09:31:30;28.40;;;18.93;;
9459;SDS011;4768;42.664;23.240;2023-03-24T09:33:57;24.53;;;18.47;;
9459;SDS011;4768;42.664;23.240;2023-03-24T09:36:26;25.17;;;17.80;;
9459;SDS011;4768;42.664;23.240;2023-03-24T09:38:52;26.47;;;18.20;;
9459;SDS011;4768;42.664;23.240;2023-03-24T09:41:20;22.87;;;15.93;;
9459;SDS011;4768;42.664;23.240;2023-03-24T09:43:52;17.63;;;13.20;;
9459;SDS011;4768;42.664;23.240;2023-03-24T09:46:25;14.30;;;12.53;;
9459;SDS011;4768;42.664;23.240;2023-03-24T09:48:56;20.17;;;15.60;;
9459;SDS011;4768;42.664;23.240;2023-03-24T09:51:24;19.37;;;14.60;;
9459;SDS011;4768;42.664;23.240;2023-03-24T09:53:55;19.47;;;14.53;;
9459;SDS011;4768;42.664;23.240;2023-03-24T09:56:27;21.77;;;13.10;;
9459;SDS011;4768;42.664;23.240;2023-03-24T09:58:59;22.10;;;14.77;;
9459;SDS011;4768;42.664;23.240;2023-03-24T10:01:28;15.33;;;12.37;;
9459;SDS011;4768;42.664;23.240;2023-03-24T10:03:56;22.23;;;12.23;;
9459;SDS011;4768;42.664;23.240;2023-03-24T10:06:26;21.50;;;12.33;;
9459;SDS011;4768;42.664;23.240;2023-03-24T10:09:02;14.80;;;11.37;;
9459;SDS011;4768;42.664;23.240;2023-03-24T10:11:44;15.40;;;11.80;;
9459;SDS011;4768;42.664;23.240;2023-03-24T10:14:18;17.17;;;11.77;;
9459;SDS011;4768;42.664;23.240;2023-03-24T10:16:54;17.80;;;10.63;;
9459;SDS011;4768;42.664;23.240;2023-03-24T10:19:28;15.13;;;11.30;;
9459;SDS011;4768;42.664;23.240;2023-03-24T10:22:09;15.40;;;12.57;;
9459;SDS011;4768;42.664;23.240;2023-03-24T10:24:44;18.33;;;12.43;;
9459;SDS011;4768;42.664;23.240;2023-03-24T10:27:17;17.27;;;12.53;;
9459;SDS011;4768;42.664;23.240;2023-03-24T10:29:51;21.93;;;15.17;;
9459;SDS011;4768;42.664;23.240;2023-03-24T10:32:26;22.07;;;12.20;;
9459;SDS011;4768;42.664;23.240;2023-03-24T10:34:57;17.73;;;12.37;;
9459;SDS011;4768;42.664;23.240;2023-03-24T10:37:34;22.03;;;12.73;;
9459;SDS011;4768;42.664;23.240;2023-03-24T10:40:04;16.33;;;12.23;;
9459;SDS011;4768;42.664;23.240;2023-03-24T10:42:40;20.80;;;11.90;;
9459;SDS011;4768;42.664;23.240;2023-03-24T10:45:10;20.03;;;13.03;;
9459;SDS011;4768;42.664;23.240;2023-03-24T10:47:39;19.33;;;13.30;;
9459;SDS011;4768;42.664;23.240;2023-03-24T10:50:08;17.20;;;12.73;;
9459;SDS011;4768;42.664;23.240;2023-03-24T10:52:41;16.67;;;10.73;;
9459;SDS011;4768;42.664;23.240;2023-03-24T10:55:13;18.37;;;11.13;;
9459;SDS011;4768;42.664;23.240;2023-03-24T10:57:43;15.50;;;10.17;;
9459;SDS011;4768;42.664;23.240;2023-03-24T11:00:15;15.80;;;10.57;;
9459;SDS011;4768;42.664;23.240;2023-03-24T11:02:52;18.87;;;11.23;;
9459;SDS011;4768;42.664;23.240;2023-03-24T11:05:24;17.80;;;11.00;;
9459;SDS011;4768;42.664;23.240;2023-03-24T11:07:57;12.00;;;8.47;;
9459;SDS011;4768;42.664;23.240;2023-03-24T11:10:37;12.43;;;8.80;;
9459;SDS011;4768;42.664;23.240;2023-03-24T11:13:04;12.13;;;8.93;;
9459;SDS011;4768;42.664;23.240;2023-03-24T11:15:51;11.57;;;7.37;;
9459;SDS011;4768;42.664;23.240;2023-03-24T11:18:19;10.23;;;8.47;;
9459;SDS011;4768;42.664;23.240;2023-03-24T11:20:46;11.17;;;7.73;;
9459;SDS011;4768;42.664;23.240;2023-03-24T11:23:19;12.90;;;7.77;;
9459;SDS011;4768;42.664;23.240;2023-03-24T11:25:52;11.13;;;6.30;;
9459;SDS011;4768;42.664;23.240;2023-03-24T11:28:29;9.37;;;6.40;;
9459;SDS011;4768;42.664;23.240;2023-03-24T11:31:04;11.73;;;6.10;;
9459;SDS011;4768;42.664;23.240;2023-03-24T11:33:33;7.97;;;6.20;;
9459;SDS011;4768;42.664;23.240;2023-03-24T11:39:08;6.10;;;5.50;;
9459;SDS011;4768;42.664;23.240;2023-03-24T11:41:37;5.33;;;4.67;;
9459;SDS011;4768;42.664;23.240;2023-03-24T11:44:13;7.63;;;5.50;;
9459;SDS011;4768;42.664;23.240;2023-03-24T11:46:43;8.50;;;5.57;;
9459;SDS011;4768;42.664;23.240;2023-03-24T11:49:14;8.00;;;5.70;;
9459;SDS011;4768;42.664;23.240;2023-03-24T11:51:45;7.47;;;5.33;;
9459;SDS011;4768;42.664;23.240;2023-03-24T11:54:17;7.33;;;5.50;;
9459;SDS011;4768;42.664;23.240;2023-03-24T11:56:48;10.43;;;5.77;;
9459;SDS011;4768;42.664;23.240;2023-03-24T11:59:21;9.80;;;5.93;;
9459;SDS011;4768;42.664;23.240;2023-03-24T12:01:56;6.97;;;5.67;;
9459;SDS011;4768;42.664;23.240;2023-03-24T12:04:31;10.27;;;5.60;;
9459;SDS011;4768;42.664;23.240;2023-03-24T12:07:20;8.40;;;5.60;;
9459;SDS011;4768;42.664;23.240;2023-03-24T12:10:08;8.83;;;5.27;;
9459;SDS011;4768;42.664;23.240;2023-03-24T12:12:46;7.80;;;6.47;;
9459;SDS011;4768;42.664;23.240;2023-03-24T12:15:24;9.47;;;5.60;;
9459;SDS011;4768;42.664;23.240;2023-03-24T12:18:02;7.13;;;5.43;;
9459;SDS011;4768;42.664;23.240;2023-03-24T12:20:45;7.37;;;5.27;;
9459;SDS011;4768;42.664;23.240;2023-03-24T12:23:20;7.17;;;4.93;;
9459;SDS011;4768;42.664;23.240;2023-03-24T12:26:02;10.57;;;5.60;;
9459;SDS011;4768;42.664;23.240;2023-03-24T12:28:51;6.37;;;4.83;;
9459;SDS011;4768;42.664;23.240;2023-03-24T12:31:34;8.43;;;5.03;;
9459;SDS011;4768;42.664;23.240;2023-03-24T12:34:14;6.80;;;5.07;;
9459;SDS011;4768;42.664;23.240;2023-03-24T12:37:00;6.20;;;4.97;;
9459;SDS011;4768;42.664;23.240;2023-03-24T12:39:33;10.37;;;5.50;;
9459;SDS011;4768;42.664;23.240;2023-03-24T12:42:09;5.97;;;4.97;;
9459;SDS011;4768;42.664;23.240;2023-03-24T12:44:41;7.87;;;5.07;;
9459;SDS011;4768;42.664;23.240;2023-03-24T12:47:27;6.87;;;5.00;;
9459;SDS011;4768;42.664;23.240;2023-03-24T12:50:10;8.80;;;4.73;;
9459;SDS011;4768;42.664;23.240;2023-03-24T12:52:52;8.87;;;4.70;;
9459;SDS011;4768;42.664;23.240;2023-03-24T12:55:32;6.93;;;4.70;;
9459;SDS011;4768;42.664;23.240;2023-03-24T12:58:08;7.73;;;4.93;;
9459;SDS011;4768;42.664;23.240;2023-03-24T13:00:43;8.80;;;4.90;;
9459;SDS011;4768;42.664;23.240;2023-03-24T13:03:20;9.80;;;4.97;;
9459;SDS011;4768;42.664;23.240;2023-03-24T13:05:52;7.53;;;4.30;;
9459;SDS011;4768;42.664;23.240;2023-03-24T13:08:21;5.37;;;4.23;;
9459;SDS011;4768;42.664;23.240;2023-03-24T13:10:54;4.97;;;3.57;;
9459;SDS011;4768;42.664;23.240;2023-03-24T13:13:28;6.63;;;4.03;;
9459;SDS011;4768;42.664;23.240;2023-03-24T13:15:59;8.57;;;4.27;;
9459;SDS011;4768;42.664;23.240;2023-03-24T13:18:31;6.70;;;3.43;;
9459;SDS011;4768;42.664;23.240;2023-03-24T13:21:02;6.10;;;3.60;;
9459;SDS011;4768;42.664;23.240;2023-03-24T13:23:41;5.87;;;3.57;;
9459;SDS011;4768;42.664;23.240;2023-03-24T13:26:22;5.13;;;3.30;;
9459;SDS011;4768;42.664;23.240;2023-03-24T13:29:03;6.47;;;3.53;;
9459;SDS011;4768;42.664;23.240;2023-03-24T13:31:40;5.73;;;3.40;;
9459;SDS011;4768;42.664;23.240;2023-03-24T13:34:15;6.00;;;3.73;;
9459;SDS011;4768;42.664;23.240;2023-03-24T13:36:53;4.87;;;3.27;;
9459;SDS011;4768;42.664;23.240;2023-03-24T13:39:24;4.40;;;3.13;;
9459;SDS011;4768;42.664;23.240;2023-03-24T13:41:53;3.10;;;2.80;;
9459;SDS011;4768;42.664;23.240;2023-03-24T13:44:24;3.40;;;2.80;;
9459;SDS011;4768;42.664;23.240;2023-03-24T13:46:58;3.70;;;2.60;;
9459;SDS011;4768;42.664;23.240;2023-03-24T13:49:37;7.20;;;3.13;;
9459;SDS011;4768;42.664;23.240;2023-03-24T13:52:06;3.17;;;2.87;;
9459;SDS011;4768;42.664;23.240;2023-03-24T13:54:47;3.97;;;3.00;;
9459;SDS011;4768;42.664;23.240;2023-03-24T13:57:19;3.43;;;2.87;;
9459;SDS011;4768;42.664;23.240;2023-03-24T13:59:59;3.23;;;2.70;;
9459;SDS011;4768;42.664;23.240;2023-03-24T14:02:43;3.03;;;2.73;;
9459;SDS011;4768;42.664;23.240;2023-03-24T14:08:10;7.80;;;2.60;;
9459;SDS011;4768;42.664;23.240;2023-03-24T14:10:43;3.00;;;2.63;;
9459;SDS011;4768;42.664;23.240;2023-03-24T14:13:21;4.07;;;3.13;;
9459;SDS011;4768;42.664;23.240;2023-03-24T14:15:52;5.03;;;2.83;;
9459;SDS011;4768;42.664;23.240;2023-03-24T14:18:39;4.73;;;3.03;;
9459;SDS011;4768;42.664;23.240;2023-03-24T14:21:07;3.07;;;2.60;;
9459;SDS011;4768;42.664;23.240;2023-03-24T14:23:36;5.77;;;3.03;;
9459;SDS011;4768;42.664;23.240;2023-03-24T14:26:06;4.67;;;3.03;;
9459;SDS011;4768;42.664;23.240;2023-03-24T14:28:38;5.67;;;3.00;;
9459;SDS011;4768;42.664;23.240;2023-03-24T14:31:16;5.73;;;2.93;;
9459;SDS011;4768;42.664;23.240;2023-03-24T14:36:35;4.70;;;3.73;;
9459;SDS011;4768;42.664;23.240;2023-03-24T14:39:08;7.00;;;3.30;;
9459;SDS011;4768;42.664;23.240;2023-03-24T14:41:43;3.70;;;3.07;;
9459;SDS011;4768;42.664;23.240;2023-03-24T14:44:15;3.50;;;3.20;;
9459;SDS011;4768;42.664;23.240;2023-03-24T14:47:20;6.93;;;3.17;;
9459;SDS011;4768;42.664;23.240;2023-03-24T14:49:49;8.63;;;3.20;;
9459;SDS011;4768;42.664;23.240;2023-03-24T14:52:18;5.10;;;3.10;;
9459;SDS011;4768;42.664;23.240;2023-03-24T14:54:49;4.43;;;3.10;;
9459;SDS011;4768;42.664;23.240;2023-03-24T14:57:20;4.40;;;2.90;;
9459;SDS011;4768;42.664;23.240;2023-03-24T14:59:51;6.47;;;2.93;;
9459;SDS011;4768;42.664;23.240;2023-03-24T15:02:31;4.67;;;3.10;;
9459;SDS011;4768;42.664;23.240;2023-03-24T15:05:17;6.43;;;3.13;;
9459;SDS011;4768;42.664;23.240;2023-03-24T15:07:57;5.77;;;3.43;;
9459;SDS011;4768;42.664;23.240;2023-03-24T15:10:38;3.87;;;2.63;;
9459;SDS011;4768;42.664;23.240;2023-03-24T15:16:02;5.23;;;2.80;;
9459;SDS011;4768;42.664;23.240;2023-03-24T15:18:33;4.93;;;3.10;;
9459;SDS011;4768;42.664;23.240;2023-03-24T15:21:00;4.00;;;3.30;;
9459;SDS011;4768;42.664;23.240;2023-03-24T15:23:38;5.63;;;3.50;;
9459;SDS011;4768;42.664;23.240;2023-03-24T15:26:09;5.90;;;3.63;;
9459;SDS011;4768;42.664;23.240;2023-03-24T15:28:38;5.70;;;3.60;;